sensor_id;sensor_type;location;lat;lon;timestamp;temperature;humidity
46356;DHT22;32066;49.474;11.106;2022-09-06T00:00:09;20.50;74.20
46356;DHT22;32066;49.474;11.106;2022-09-06T00:02:41;20.60;74.30
46356;DHT22;32066;49.474;11.106;2022-09-06T00:05:11;20.50;74.60
46356;DHT22;32066;49.474;11.106;2022-09-06T00:07:38;20.40;75.00
46356;DHT22;32066;49.474;11.106;2022-09-06T00:10:06;20.40;75.30
46356;DHT22;32066;49.474;11.106;2022-09-06T00:12:33;20.50;75.10
46356;DHT22;32066;49.474;11.106;2022-09-06T00:15:00;20.50;74.70
46356;DHT22;32066;49.474;11.106;2022-09-06T00:17:27;20.50;74.90
46356;DHT22;32066;49.474;11.106;2022-09-06T00:19:54;20.50;74.70
46356;DHT22;32066;49.474;11.106;2022-09-06T00:22:22;20.40;74.80
46356;DHT22;32066;49.474;11.106;2022-09-06T00:24:49;20.40;75.10
46356;DHT22;32066;49.474;11.106;2022-09-06T00:27:16;20.40;75.00
46356;DHT22;32066;49.474;11.106;2022-09-06T00:29:43;20.40;75.00
46356;DHT22;32066;49.474;11.106;2022-09-06T00:32:10;20.40;75.10
46356;DHT22;32066;49.474;11.106;2022-09-06T00:34:37;20.40;75.40
46356;DHT22;32066;49.474;11.106;2022-09-06T00:37:04;20.40;74.70
46356;DHT22;32066;49.474;11.106;2022-09-06T00:39:32;20.40;75.00
46356;DHT22;32066;49.474;11.106;2022-09-06T00:41:59;20.40;74.90
46356;DHT22;32066;49.474;11.106;2022-09-06T00:44:26;20.30;75.80
46356;DHT22;32066;49.474;11.106;2022-09-06T00:46:53;20.20;75.70
46356;DHT22;32066;49.474;11.106;2022-09-06T00:49:23;20.20;75.60
46356;DHT22;32066;49.474;11.106;2022-09-06T00:51:53;20.20;75.80
46356;DHT22;32066;49.474;11.106;2022-09-06T00:54:21;20.20;76.00
46356;DHT22;32066;49.474;11.106;2022-09-06T00:56:49;20.20;76.00
46356;DHT22;32066;49.474;11.106;2022-09-06T00:59:16;20.10;76.20
46356;DHT22;32066;49.474;11.106;2022-09-06T01:01:43;20.20;76.20
46356;DHT22;32066;49.474;11.106;2022-09-06T01:04:10;20.10;76.60
46356;DHT22;32066;49.474;11.106;2022-09-06T01:06:46;20.10;76.50
46356;DHT22;32066;49.474;11.106;2022-09-06T01:09:26;20.10;76.60
46356;DHT22;32066;49.474;11.106;2022-09-06T01:12:05;20.00;77.00
46356;DHT22;32066;49.474;11.106;2022-09-06T01:14:43;19.90;77.40
46356;DHT22;32066;49.474;11.106;2022-09-06T01:17:23;19.90;77.60
46356;DHT22;32066;49.474;11.106;2022-09-06T01:20:22;20.00;78.10
46356;DHT22;32066;49.474;11.106;2022-09-06T01:26:34;20.00;77.70
46356;DHT22;32066;49.474;11.106;2022-09-06T01:29:07;20.00;77.70
46356;DHT22;32066;49.474;11.106;2022-09-06T01:31:43;20.10;77.70
46356;DHT22;32066;49.474;11.106;2022-09-06T01:34:18;20.00;78.60
46356;DHT22;32066;49.474;11.106;2022-09-06T01:36:50;20.00;78.20
46356;DHT22;32066;49.474;11.106;2022-09-06T01:39:22;19.90;78.60
46356;DHT22;32066;49.474;11.106;2022-09-06T01:41:50;19.80;79.30
46356;DHT22;32066;49.474;11.106;2022-09-06T01:44:19;19.60;80.00
46356;DHT22;32066;49.474;11.106;2022-09-06T01:46:53;19.60;80.40
46356;DHT22;32066;49.474;11.106;2022-09-06T01:49:32;19.60;80.50
46356;DHT22;32066;49.474;11.106;2022-09-06T01:52:11;19.50;80.80
46356;DHT22;32066;49.474;11.106;2022-09-06T01:54:50;19.60;80.40
46356;DHT22;32066;49.474;11.106;2022-09-06T01:57:28;19.60;80.50
46356;DHT22;32066;49.474;11.106;2022-09-06T02:00:04;19.60;80.60
46356;DHT22;32066;49.474;11.106;2022-09-06T02:02:49;19.60;80.50
46356;DHT22;32066;49.474;11.106;2022-09-06T02:05:22;19.70;80.80
46356;DHT22;32066;49.474;11.106;2022-09-06T02:07:53;19.50;81.30
46356;DHT22;32066;49.474;11.106;2022-09-06T02:10:26;19.30;81.80
46356;DHT22;32066;49.474;11.106;2022-09-06T02:12:58;19.50;81.60
46356;DHT22;32066;49.474;11.106;2022-09-06T02:15:30;19.50;81.60
46356;DHT22;32066;49.474;11.106;2022-09-06T02:18:01;19.50;81.50
46356;DHT22;32066;49.474;11.106;2022-09-06T02:20:32;19.50;81.80
46356;DHT22;32066;49.474;11.106;2022-09-06T02:23:02;19.50;81.60
46356;DHT22;32066;49.474;11.106;2022-09-06T02:25:34;19.50;81.60
46356;DHT22;32066;49.474;11.106;2022-09-06T02:28:02;19.50;81.50
46356;DHT22;32066;49.474;11.106;2022-09-06T02:30:31;19.60;81.10
46356;DHT22;32066;49.474;11.106;2022-09-06T02:33:03;19.60;81.40
46356;DHT22;32066;49.474;11.106;2022-09-06T02:35:41;19.50;81.70
46356;DHT22;32066;49.474;11.106;2022-09-06T02:38:08;19.50;81.80
46356;DHT22;32066;49.474;11.106;2022-09-06T02:40:35;19.50;82.00
46356;DHT22;32066;49.474;11.106;2022-09-06T02:43:02;19.50;81.60
46356;DHT22;32066;49.474;11.106;2022-09-06T02:45:31;19.40;82.20
46356;DHT22;32066;49.474;11.106;2022-09-06T02:47:58;19.40;82.40
46356;DHT22;32066;49.474;11.106;2022-09-06T02:50:25;19.40;82.20
46356;DHT22;32066;49.474;11.106;2022-09-06T02:53:01;19.40;82.30
46356;DHT22;32066;49.474;11.106;2022-09-06T02:55:27;19.50;82.40
46356;DHT22;32066;49.474;11.106;2022-09-06T02:57:54;19.50;82.20
46356;DHT22;32066;49.474;11.106;2022-09-06T03:00:21;19.40;82.90
46356;DHT22;32066;49.474;11.106;2022-09-06T03:02:49;19.30;83.70
46356;DHT22;32066;49.474;11.106;2022-09-06T03:05:16;19.10;84.40
46356;DHT22;32066;49.474;11.106;2022-09-06T03:07:43;19.00;85.00
46356;DHT22;32066;49.474;11.106;2022-09-06T03:10:10;19.00;85.40
46356;DHT22;32066;49.474;11.106;2022-09-06T03:12:37;19.00;85.10
46356;DHT22;32066;49.474;11.106;2022-09-06T03:15:04;19.00;85.30
46356;DHT22;32066;49.474;11.106;2022-09-06T03:17:31;19.10;84.90
46356;DHT22;32066;49.474;11.106;2022-09-06T03:19:59;19.10;84.50
46356;DHT22;32066;49.474;11.106;2022-09-06T03:22:26;19.20;84.20
46356;DHT22;32066;49.474;11.106;2022-09-06T03:24:53;19.10;84.40
46356;DHT22;32066;49.474;11.106;2022-09-06T03:27:20;19.00;84.90
46356;DHT22;32066;49.474;11.106;2022-09-06T03:29:47;19.00;85.20
46356;DHT22;32066;49.474;11.106;2022-09-06T03:32:14;19.00;85.10
46356;DHT22;32066;49.474;11.106;2022-09-06T03:34:41;18.90;85.10
46356;DHT22;32066;49.474;11.106;2022-09-06T03:37:09;18.70;85.70
46356;DHT22;32066;49.474;11.106;2022-09-06T03:39:36;18.70;86.10
46356;DHT22;32066;49.474;11.106;2022-09-06T03:42:03;18.60;86.60
46356;DHT22;32066;49.474;11.106;2022-09-06T03:44:30;18.70;86.40
46356;DHT22;32066;49.474;11.106;2022-09-06T03:46:57;18.70;86.10
46356;DHT22;32066;49.474;11.106;2022-09-06T03:49:24;18.80;85.80
46356;DHT22;32066;49.474;11.106;2022-09-06T03:51:51;18.80;85.70
46356;DHT22;32066;49.474;11.106;2022-09-06T03:54:19;18.90;85.20
46356;DHT22;32066;49.474;11.106;2022-09-06T03:56:46;19.10;84.90
46356;DHT22;32066;49.474;11.106;2022-09-06T03:59:13;19.00;85.10
46356;DHT22;32066;49.474;11.106;2022-09-06T04:01:39;19.00;85.40
46356;DHT22;32066;49.474;11.106;2022-09-06T04:04:06;18.90;85.40
46356;DHT22;32066;49.474;11.106;2022-09-06T04:06:33;19.00;85.40
46356;DHT22;32066;49.474;11.106;2022-09-06T04:09:00;18.90;85.80
46356;DHT22;32066;49.474;11.106;2022-09-06T04:11:28;18.80;86.20
46356;DHT22;32066;49.474;11.106;2022-09-06T04:13:55;18.70;86.60
46356;DHT22;32066;49.474;11.106;2022-09-06T04:16:22;18.60;86.90
46356;DHT22;32066;49.474;11.106;2022-09-06T04:18:49;18.60;87.20
46356;DHT22;32066;49.474;11.106;2022-09-06T04:21:16;18.70;87.10
46356;DHT22;32066;49.474;11.106;2022-09-06T04:23:43;18.70;87.30
46356;DHT22;32066;49.474;11.106;2022-09-06T04:26:10;18.70;87.10
46356;DHT22;32066;49.474;11.106;2022-09-06T04:28:38;18.70;87.20
46356;DHT22;32066;49.474;11.106;2022-09-06T04:31:05;18.60;87.70
46356;DHT22;32066;49.474;11.106;2022-09-06T04:33:33;18.60;87.70
46356;DHT22;32066;49.474;11.106;2022-09-06T04:36:02;18.70;87.30
46356;DHT22;32066;49.474;11.106;2022-09-06T04:38:34;18.80;86.90
46356;DHT22;32066;49.474;11.106;2022-09-06T04:41:01;18.90;86.30
46356;DHT22;32066;49.474;11.106;2022-09-06T04:43:28;18.90;86.20
46356;DHT22;32066;49.474;11.106;2022-09-06T04:46:02;18.90;86.50
46356;DHT22;32066;49.474;11.106;2022-09-06T04:48:28;18.90;86.40
46356;DHT22;32066;49.474;11.106;2022-09-06T04:50:55;18.90;86.80
46356;DHT22;32066;49.474;11.106;2022-09-06T04:53:22;18.80;87.10
46356;DHT22;32066;49.474;11.106;2022-09-06T04:55:49;18.70;87.60
46356;DHT22;32066;49.474;11.106;2022-09-06T04:58:16;18.60;88.00
46356;DHT22;32066;49.474;11.106;2022-09-06T05:00:43;18.60;88.30
46356;DHT22;32066;49.474;11.106;2022-09-06T05:03:12;18.70;87.90
46356;DHT22;32066;49.474;11.106;2022-09-06T05:05:38;18.90;87.40
46356;DHT22;32066;49.474;11.106;2022-09-06T05:08:05;19.00;87.10
46356;DHT22;32066;49.474;11.106;2022-09-06T05:10:32;18.90;86.90
46356;DHT22;32066;49.474;11.106;2022-09-06T05:12:59;18.80;87.40
46356;DHT22;32066;49.474;11.106;2022-09-06T05:15:26;18.70;87.50
46356;DHT22;32066;49.474;11.106;2022-09-06T05:18:00;18.60;88.40
46356;DHT22;32066;49.474;11.106;2022-09-06T05:20:29;18.30;89.60
46356;DHT22;32066;49.474;11.106;2022-09-06T05:22:56;18.20;90.00
46356;DHT22;32066;49.474;11.106;2022-09-06T05:25:23;18.00;90.40
46356;DHT22;32066;49.474;11.106;2022-09-06T05:27:49;18.00;90.70
46356;DHT22;32066;49.474;11.106;2022-09-06T05:30:16;17.90;90.80
46356;DHT22;32066;49.474;11.106;2022-09-06T05:32:44;17.80;90.90
46356;DHT22;32066;49.474;11.106;2022-09-06T05:35:11;17.90;90.90
46356;DHT22;32066;49.474;11.106;2022-09-06T05:37:39;17.70;91.20
46356;DHT22;32066;49.474;11.106;2022-09-06T05:40:07;17.80;91.30
46356;DHT22;32066;49.474;11.106;2022-09-06T05:42:34;17.90;91.00
46356;DHT22;32066;49.474;11.106;2022-09-06T05:45:01;18.10;90.70
46356;DHT22;32066;49.474;11.106;2022-09-06T05:47:28;18.30;90.30
46356;DHT22;32066;49.474;11.106;2022-09-06T05:49:58;18.50;89.70
46356;DHT22;32066;49.474;11.106;2022-09-06T05:52:25;18.70;89.30
46356;DHT22;32066;49.474;11.106;2022-09-06T05:54:55;18.60;89.30
46356;DHT22;32066;49.474;11.106;2022-09-06T05:57:23;18.70;89.50
46356;DHT22;32066;49.474;11.106;2022-09-06T05:59:49;18.80;88.90
46356;DHT22;32066;49.474;11.106;2022-09-06T06:02:18;18.90;88.30
46356;DHT22;32066;49.474;11.106;2022-09-06T06:04:45;18.60;89.10
46356;DHT22;32066;49.474;11.106;2022-09-06T06:07:12;18.50;89.80
46356;DHT22;32066;49.474;11.106;2022-09-06T06:09:39;18.40;90.10
46356;DHT22;32066;49.474;11.106;2022-09-06T06:12:08;18.50;90.20
46356;DHT22;32066;49.474;11.106;2022-09-06T06:14:34;18.50;90.30
46356;DHT22;32066;49.474;11.106;2022-09-06T06:17:01;18.60;90.10
46356;DHT22;32066;49.474;11.106;2022-09-06T06:19:29;18.80;89.90
46356;DHT22;32066;49.474;11.106;2022-09-06T06:21:56;18.80;90.10
46356;DHT22;32066;49.474;11.106;2022-09-06T06:24:23;18.80;90.20
46356;DHT22;32066;49.474;11.106;2022-09-06T06:26:50;18.90;90.00
46356;DHT22;32066;49.474;11.106;2022-09-06T06:29:18;19.00;89.80
46356;DHT22;32066;49.474;11.106;2022-09-06T06:31:45;19.10;89.60
46356;DHT22;32066;49.474;11.106;2022-09-06T06:34:12;19.20;89.30
46356;DHT22;32066;49.474;11.106;2022-09-06T06:36:39;19.40;88.90
46356;DHT22;32066;49.474;11.106;2022-09-06T06:39:06;19.50;88.20
46356;DHT22;32066;49.474;11.106;2022-09-06T06:41:34;19.70;87.40
46356;DHT22;32066;49.474;11.106;2022-09-06T06:44:02;19.50;87.90
46356;DHT22;32066;49.474;11.106;2022-09-06T06:46:32;19.60;88.70
46356;DHT22;32066;49.474;11.106;2022-09-06T06:48:59;19.60;88.10
46356;DHT22;32066;49.474;11.106;2022-09-06T06:51:28;19.70;87.90
46356;DHT22;32066;49.474;11.106;2022-09-06T06:53:56;19.70;88.00
46356;DHT22;32066;49.474;11.106;2022-09-06T06:56:24;19.80;88.20
46356;DHT22;32066;49.474;11.106;2022-09-06T06:58:53;19.80;87.70
46356;DHT22;32066;49.474;11.106;2022-09-06T07:01:22;19.80;88.20
46356;DHT22;32066;49.474;11.106;2022-09-06T07:03:51;19.80;88.40
46356;DHT22;32066;49.474;11.106;2022-09-06T07:06:19;19.90;88.60
46356;DHT22;32066;49.474;11.106;2022-09-06T07:08:46;20.10;88.10
46356;DHT22;32066;49.474;11.106;2022-09-06T07:11:15;20.20;87.30
46356;DHT22;32066;49.474;11.106;2022-09-06T07:13:42;20.10;87.30
46356;DHT22;32066;49.474;11.106;2022-09-06T07:16:11;20.10;87.40
46356;DHT22;32066;49.474;11.106;2022-09-06T07:18:38;20.20;87.40
46356;DHT22;32066;49.474;11.106;2022-09-06T07:21:10;20.30;87.20
46356;DHT22;32066;49.474;11.106;2022-09-06T07:23:37;20.40;86.90
46356;DHT22;32066;49.474;11.106;2022-09-06T07:26:04;20.60;86.80
46356;DHT22;32066;49.474;11.106;2022-09-06T07:28:31;20.70;86.30
46356;DHT22;32066;49.474;11.106;2022-09-06T07:30:58;20.90;85.40
46356;DHT22;32066;49.474;11.106;2022-09-06T07:33:26;20.90;85.10
46356;DHT22;32066;49.474;11.106;2022-09-06T07:35:57;21.00;84.70
46356;DHT22;32066;49.474;11.106;2022-09-06T07:38:26;21.10;84.90
46356;DHT22;32066;49.474;11.106;2022-09-06T07:40:54;21.30;84.20
46356;DHT22;32066;49.474;11.106;2022-09-06T07:43:21;21.40;85.30
46356;DHT22;32066;49.474;11.106;2022-09-06T07:45:56;21.70;83.30
46356;DHT22;32066;49.474;11.106;2022-09-06T07:48:22;21.60;82.60
46356;DHT22;32066;49.474;11.106;2022-09-06T07:50:49;21.70;82.60
46356;DHT22;32066;49.474;11.106;2022-09-06T07:53:16;21.70;81.90
46356;DHT22;32066;49.474;11.106;2022-09-06T07:55:44;21.60;81.90
46356;DHT22;32066;49.474;11.106;2022-09-06T07:58:11;21.70;82.30
46356;DHT22;32066;49.474;11.106;2022-09-06T08:00:38;21.60;81.80
46356;DHT22;32066;49.474;11.106;2022-09-06T08:03:05;21.40;82.70
46356;DHT22;32066;49.474;11.106;2022-09-06T08:05:32;21.50;82.60
46356;DHT22;32066;49.474;11.106;2022-09-06T08:07:59;21.60;82.20
46356;DHT22;32066;49.474;11.106;2022-09-06T08:10:26;21.60;82.20
46356;DHT22;32066;49.474;11.106;2022-09-06T08:12:54;21.70;82.40
46356;DHT22;32066;49.474;11.106;2022-09-06T08:15:21;21.70;82.00
46356;DHT22;32066;49.474;11.106;2022-09-06T08:17:48;21.80;81.90
46356;DHT22;32066;49.474;11.106;2022-09-06T08:20:16;21.70;81.90
46356;DHT22;32066;49.474;11.106;2022-09-06T08:22:43;21.80;82.10
46356;DHT22;32066;49.474;11.106;2022-09-06T08:25:10;21.90;81.90
46356;DHT22;32066;49.474;11.106;2022-09-06T08:27:36;21.90;81.10
46356;DHT22;32066;49.474;11.106;2022-09-06T08:30:06;22.00;81.60
46356;DHT22;32066;49.474;11.106;2022-09-06T08:32:33;22.00;81.70
46356;DHT22;32066;49.474;11.106;2022-09-06T08:35:01;22.10;81.40
46356;DHT22;32066;49.474;11.106;2022-09-06T08:37:27;22.30;80.90
46356;DHT22;32066;49.474;11.106;2022-09-06T08:39:54;22.20;80.20
46356;DHT22;32066;49.474;11.106;2022-09-06T08:42:21;22.30;80.40
46356;DHT22;32066;49.474;11.106;2022-09-06T08:44:50;22.30;80.40
46356;DHT22;32066;49.474;11.106;2022-09-06T08:47:20;22.50;80.10
46356;DHT22;32066;49.474;11.106;2022-09-06T08:49:49;22.40;78.90
46356;DHT22;32066;49.474;11.106;2022-09-06T08:52:25;22.50;79.30
46356;DHT22;32066;49.474;11.106;2022-09-06T08:54:59;22.50;79.10
46356;DHT22;32066;49.474;11.106;2022-09-06T08:57:43;22.50;78.80
46356;DHT22;32066;49.474;11.106;2022-09-06T09:00:12;22.60;78.90
46356;DHT22;32066;49.474;11.106;2022-09-06T09:02:45;22.60;78.30
46356;DHT22;32066;49.474;11.106;2022-09-06T09:05:21;22.70;78.50
46356;DHT22;32066;49.474;11.106;2022-09-06T09:07:54;22.80;77.70
46356;DHT22;32066;49.474;11.106;2022-09-06T09:10:28;22.80;77.60
46356;DHT22;32066;49.474;11.106;2022-09-06T09:12:55;22.70;77.90
46356;DHT22;32066;49.474;11.106;2022-09-06T09:15:23;22.80;77.80
46356;DHT22;32066;49.474;11.106;2022-09-06T09:17:52;23.10;77.50
46356;DHT22;32066;49.474;11.106;2022-09-06T09:20:20;23.20;76.90
46356;DHT22;32066;49.474;11.106;2022-09-06T09:22:47;23.30;76.80
46356;DHT22;32066;49.474;11.106;2022-09-06T09:25:19;23.50;76.30
46356;DHT22;32066;49.474;11.106;2022-09-06T09:27:47;23.60;75.70
46356;DHT22;32066;49.474;11.106;2022-09-06T09:30:22;23.70;74.90
46356;DHT22;32066;49.474;11.106;2022-09-06T09:32:50;23.90;74.40
46356;DHT22;32066;49.474;11.106;2022-09-06T09:35:25;24.10;73.20
46356;DHT22;32066;49.474;11.106;2022-09-06T09:37:59;24.20;73.10
46356;DHT22;32066;49.474;11.106;2022-09-06T09:40:33;24.10;73.20
46356;DHT22;32066;49.474;11.106;2022-09-06T09:43:19;24.10;73.20
46356;DHT22;32066;49.474;11.106;2022-09-06T09:45:46;24.00;73.90
46356;DHT22;32066;49.474;11.106;2022-09-06T09:48:24;24.00;73.00
46356;DHT22;32066;49.474;11.106;2022-09-06T09:50:55;24.10;73.30
46356;DHT22;32066;49.474;11.106;2022-09-06T09:53:23;24.20;73.60
46356;DHT22;32066;49.474;11.106;2022-09-06T09:55:55;24.20;73.30
46356;DHT22;32066;49.474;11.106;2022-09-06T09:58:30;24.30;73.50
46356;DHT22;32066;49.474;11.106;2022-09-06T10:01:16;24.40;73.20
46356;DHT22;32066;49.474;11.106;2022-09-06T10:03:46;24.50;72.20
46356;DHT22;32066;49.474;11.106;2022-09-06T10:06:14;24.70;71.10
46356;DHT22;32066;49.474;11.106;2022-09-06T10:08:42;24.60;70.60
46356;DHT22;32066;49.474;11.106;2022-09-06T10:11:13;24.80;70.80
46356;DHT22;32066;49.474;11.106;2022-09-06T10:13:40;24.80;70.30
46356;DHT22;32066;49.474;11.106;2022-09-06T10:16:08;24.90;70.30
46356;DHT22;32066;49.474;11.106;2022-09-06T10:18:39;25.00;68.50
46356;DHT22;32066;49.474;11.106;2022-09-06T10:21:09;25.00;68.10
46356;DHT22;32066;49.474;11.106;2022-09-06T10:23:48;25.00;67.50
46356;DHT22;32066;49.474;11.106;2022-09-06T10:26:24;25.10;68.00
46356;DHT22;32066;49.474;11.106;2022-09-06T10:28:59;25.30;66.30
46356;DHT22;32066;49.474;11.106;2022-09-06T10:31:39;25.40;66.50
46356;DHT22;32066;49.474;11.106;2022-09-06T10:34:44;25.40;65.50
46356;DHT22;32066;49.474;11.106;2022-09-06T10:37:24;25.40;65.80
46356;DHT22;32066;49.474;11.106;2022-09-06T10:39:56;25.40;66.10
46356;DHT22;32066;49.474;11.106;2022-09-06T10:42:31;25.50;66.10
46356;DHT22;32066;49.474;11.106;2022-09-06T10:45:26;25.50;65.90
46356;DHT22;32066;49.474;11.106;2022-09-06T10:47:56;25.70;65.80
46356;DHT22;32066;49.474;11.106;2022-09-06T10:50:33;25.70;63.80
46356;DHT22;32066;49.474;11.106;2022-09-06T10:53:08;25.70;63.30
46356;DHT22;32066;49.474;11.106;2022-09-06T10:55:38;25.70;63.20
46356;DHT22;32066;49.474;11.106;2022-09-06T10:58:09;25.80;63.40
46356;DHT22;32066;49.474;11.106;2022-09-06T11:00:41;25.90;62.90
46356;DHT22;32066;49.474;11.106;2022-09-06T11:03:16;26.00;61.60
46356;DHT22;32066;49.474;11.106;2022-09-06T11:05:47;25.80;61.10
46356;DHT22;32066;49.474;11.106;2022-09-06T11:08:22;25.70;61.70
46356;DHT22;32066;49.474;11.106;2022-09-06T11:10:51;25.60;60.40
46356;DHT22;32066;49.474;11.106;2022-09-06T11:13:22;25.80;60.60
46356;DHT22;32066;49.474;11.106;2022-09-06T11:15:56;25.80;59.80
46356;DHT22;32066;49.474;11.106;2022-09-06T11:18:28;25.80;59.60
46356;DHT22;32066;49.474;11.106;2022-09-06T11:21:14;25.90;60.00
46356;DHT22;32066;49.474;11.106;2022-09-06T11:23:48;25.90;60.40
46356;DHT22;32066;49.474;11.106;2022-09-06T11:26:32;26.00;59.40
46356;DHT22;32066;49.474;11.106;2022-09-06T11:29:03;26.00;59.70
46356;DHT22;32066;49.474;11.106;2022-09-06T11:31:34;26.00;60.20
46356;DHT22;32066;49.474;11.106;2022-09-06T11:34:05;26.00;60.60
46356;DHT22;32066;49.474;11.106;2022-09-06T11:36:38;26.00;60.20
46356;DHT22;32066;49.474;11.106;2022-09-06T11:39:12;26.10;60.00
46356;DHT22;32066;49.474;11.106;2022-09-06T11:41:41;26.20;59.50
46356;DHT22;32066;49.474;11.106;2022-09-06T11:44:09;26.20;59.40
46356;DHT22;32066;49.474;11.106;2022-09-06T11:46:58;26.40;58.80
46356;DHT22;32066;49.474;11.106;2022-09-06T11:49:36;26.50;58.80
46356;DHT22;32066;49.474;11.106;2022-09-06T11:55:33;26.70;57.90
46356;DHT22;32066;49.474;11.106;2022-09-06T11:58:03;27.00;58.00
46356;DHT22;32066;49.474;11.106;2022-09-06T12:00:31;27.10;57.00
46356;DHT22;32066;49.474;11.106;2022-09-06T12:02:58;27.20;56.30
46356;DHT22;32066;49.474;11.106;2022-09-06T12:05:27;27.40;56.70
46356;DHT22;32066;49.474;11.106;2022-09-06T12:08:24;27.60;55.50
46356;DHT22;32066;49.474;11.106;2022-09-06T12:10:59;27.80;55.30
46356;DHT22;32066;49.474;11.106;2022-09-06T12:13:51;27.70;55.10
46356;DHT22;32066;49.474;11.106;2022-09-06T12:16:19;27.80;53.60
46356;DHT22;32066;49.474;11.106;2022-09-06T12:19:01;27.50;53.80
46356;DHT22;32066;49.474;11.106;2022-09-06T12:21:40;27.40;54.40
46356;DHT22;32066;49.474;11.106;2022-09-06T12:24:08;27.50;55.00
46356;DHT22;32066;49.474;11.106;2022-09-06T12:27:09;27.50;54.20
46356;DHT22;32066;49.474;11.106;2022-09-06T12:29:37;27.30;54.40
46356;DHT22;32066;49.474;11.106;2022-09-06T12:32:04;27.40;54.00
46356;DHT22;32066;49.474;11.106;2022-09-06T12:34:34;27.50;54.20
46356;DHT22;32066;49.474;11.106;2022-09-06T12:37:05;27.50;54.30
46356;DHT22;32066;49.474;11.106;2022-09-06T12:39:33;27.60;54.50
46356;DHT22;32066;49.474;11.106;2022-09-06T12:42:02;27.70;54.70
46356;DHT22;32066;49.474;11.106;2022-09-06T12:44:32;27.90;54.50
46356;DHT22;32066;49.474;11.106;2022-09-06T12:47:04;28.00;54.10
46356;DHT22;32066;49.474;11.106;2022-09-06T12:49:32;28.00;54.70
46356;DHT22;32066;49.474;11.106;2022-09-06T12:52:11;28.00;54.30
46356;DHT22;32066;49.474;11.106;2022-09-06T12:54:43;27.90;54.20
46356;DHT22;32066;49.474;11.106;2022-09-06T12:57:12;28.00;54.20
46356;DHT22;32066;49.474;11.106;2022-09-06T12:59:48;28.00;54.10
46356;DHT22;32066;49.474;11.106;2022-09-06T13:02:23;28.10;54.30
46356;DHT22;32066;49.474;11.106;2022-09-06T13:04:55;28.10;54.70
46356;DHT22;32066;49.474;11.106;2022-09-06T13:07:26;28.20;54.30
46356;DHT22;32066;49.474;11.106;2022-09-06T13:09:56;28.20;54.50
46356;DHT22;32066;49.474;11.106;2022-09-06T13:12:25;28.40;54.40
46356;DHT22;32066;49.474;11.106;2022-09-06T13:14:54;28.50;54.20
46356;DHT22;32066;49.474;11.106;2022-09-06T13:17:23;28.60;53.80
46356;DHT22;32066;49.474;11.106;2022-09-06T13:19:50;28.70;53.70
46356;DHT22;32066;49.474;11.106;2022-09-06T13:22:36;28.80;53.10
46356;DHT22;32066;49.474;11.106;2022-09-06T13:25:04;28.90;52.80
46356;DHT22;32066;49.474;11.106;2022-09-06T13:27:35;29.00;52.20
46356;DHT22;32066;49.474;11.106;2022-09-06T13:30:05;29.20;52.40
46356;DHT22;32066;49.474;11.106;2022-09-06T13:32:34;29.10;51.80
46356;DHT22;32066;49.474;11.106;2022-09-06T13:35:02;29.30;51.70
46356;DHT22;32066;49.474;11.106;2022-09-06T13:37:31;29.40;52.20
46356;DHT22;32066;49.474;11.106;2022-09-06T13:40:00;29.70;51.80
46356;DHT22;32066;49.474;11.106;2022-09-06T13:42:31;29.90;51.30
46356;DHT22;32066;49.474;11.106;2022-09-06T13:45:19;30.00;51.10
46356;DHT22;32066;49.474;11.106;2022-09-06T13:47:46;30.10;50.60
46356;DHT22;32066;49.474;11.106;2022-09-06T13:50:13;30.20;50.10
46356;DHT22;32066;49.474;11.106;2022-09-06T13:52:40;30.30;49.80
46356;DHT22;32066;49.474;11.106;2022-09-06T13:55:07;30.30;49.50
46356;DHT22;32066;49.474;11.106;2022-09-06T13:57:38;30.30;49.60
46356;DHT22;32066;49.474;11.106;2022-09-06T14:00:06;30.20;48.50
46356;DHT22;32066;49.474;11.106;2022-09-06T14:02:34;29.90;49.00
46356;DHT22;32066;49.474;11.106;2022-09-06T14:05:02;29.90;50.00
46356;DHT22;32066;49.474;11.106;2022-09-06T14:07:29;30.20;50.20
46356;DHT22;32066;49.474;11.106;2022-09-06T14:09:56;30.30;49.10
46356;DHT22;32066;49.474;11.106;2022-09-06T14:12:24;30.50;48.60
46356;DHT22;32066;49.474;11.106;2022-09-06T14:14:51;30.40;48.60
46356;DHT22;32066;49.474;11.106;2022-09-06T14:17:19;30.50;48.50
46356;DHT22;32066;49.474;11.106;2022-09-06T14:19:47;30.30;47.60
46356;DHT22;32066;49.474;11.106;2022-09-06T14:22:15;30.30;48.70
46356;DHT22;32066;49.474;11.106;2022-09-06T14:24:42;29.80;48.80
46356;DHT22;32066;49.474;11.106;2022-09-06T14:27:09;29.70;48.90
46356;DHT22;32066;49.474;11.106;2022-09-06T14:29:36;29.10;50.00
46356;DHT22;32066;49.474;11.106;2022-09-06T14:32:03;29.10;50.00
46356;DHT22;32066;49.474;11.106;2022-09-06T14:34:29;29.30;50.00
46356;DHT22;32066;49.474;11.106;2022-09-06T14:36:58;29.20;50.20
46356;DHT22;32066;49.474;11.106;2022-09-06T14:39:25;29.30;50.00
46356;DHT22;32066;49.474;11.106;2022-09-06T14:41:52;29.50;49.50
46356;DHT22;32066;49.474;11.106;2022-09-06T14:44:19;29.70;48.80
46356;DHT22;32066;49.474;11.106;2022-09-06T14:46:46;29.90;48.30
46356;DHT22;32066;49.474;11.106;2022-09-06T14:49:18;29.50;49.20
46356;DHT22;32066;49.474;11.106;2022-09-06T14:51:46;29.50;49.60
46356;DHT22;32066;49.474;11.106;2022-09-06T14:54:14;29.70;49.50
46356;DHT22;32066;49.474;11.106;2022-09-06T14:56:41;29.90;49.20
46356;DHT22;32066;49.474;11.106;2022-09-06T14:59:09;30.00;48.60
46356;DHT22;32066;49.474;11.106;2022-09-06T15:01:36;29.80;48.20
46356;DHT22;32066;49.474;11.106;2022-09-06T15:04:05;29.70;48.50
46356;DHT22;32066;49.474;11.106;2022-09-06T15:06:33;29.70;48.20
46356;DHT22;32066;49.474;11.106;2022-09-06T15:09:01;29.90;48.30
46356;DHT22;32066;49.474;11.106;2022-09-06T15:11:31;30.20;47.40
46356;DHT22;32066;49.474;11.106;2022-09-06T15:13:59;30.40;47.40
46356;DHT22;32066;49.474;11.106;2022-09-06T15:16:27;30.60;46.40
46356;DHT22;32066;49.474;11.106;2022-09-06T15:18:54;30.60;46.80
46356;DHT22;32066;49.474;11.106;2022-09-06T15:21:22;30.60;46.40
46356;DHT22;32066;49.474;11.106;2022-09-06T15:23:50;30.40;46.10
46356;DHT22;32066;49.474;11.106;2022-09-06T15:26:18;30.00;46.40
46356;DHT22;32066;49.474;11.106;2022-09-06T15:28:46;30.00;47.20
46356;DHT22;32066;49.474;11.106;2022-09-06T15:31:14;30.30;47.40
46356;DHT22;32066;49.474;11.106;2022-09-06T15:33:41;30.20;45.90
46356;DHT22;32066;49.474;11.106;2022-09-06T15:36:08;30.30;46.70
46356;DHT22;32066;49.474;11.106;2022-09-06T15:38:38;30.60;47.00